This is the latest recevied weather packets stored in our database for station/object OK0EK-11. If no packets are shown the sender has not sent any weather packets the latest 10 day(s).
| Time | Temp. | Humidity | Pressure | Rain* | Wind** | Luminosity | Snow |
|---|---|---|---|---|---|---|---|
| 1777642252 | 13.33° C | 50% | 1026.5 hPa | - | - | - | - |
| 1777641653 | 13.33° C | 50% | 1026.5 hPa | - | - | - | - |
| 1777641054 | 13.33° C | 50% | 1026.5 hPa | - | - | - | - |
| 1777640462 | 13.33° C | 49% | 1026.8 hPa | - | - | - | - |
| 1777640455 | 13.33° C | 49% | 1026.8 hPa | - | - | - | - |
| 1777639855 | 13.33° C | 49% | 1027 hPa | - | - | - | - |
| 1777639256 | 13.33° C | 49% | 1027.1 hPa | - | - | - | - |
| 1777638657 | 13.89° C | 48% | 1027.1 hPa | - | - | - | - |
| 1777638057 | 15° C | 47% | 1027.3 hPa | - | - | - | - |
| 1777637457 | 13.33° C | 50% | 1027.4 hPa | - | - | - | - |
| 1777636857 | 12.78° C | 50% | 1027.5 hPa | - | - | - | - |
| 1777636259 | 13.33° C | 49% | 1027.6 hPa | - | - | - | - |
| 1777635660 | 12.78° C | 51% | 1027.6 hPa | - | - | - | - |
| 1777635060 | 11.67° C | 52% | 1027.7 hPa | - | - | - | - |
| 1777634461 | 11.67° C | 54% | 1027.8 hPa | - | - | - | - |
| 1777634140 | 12.22° C | 53% | 1027.8 hPa | - | - | - | - |
| 1777634029 | 10.56° C | 57% | 1028 hPa | - | - | - | - |
| 1777633540 | 11.67° C | 53% | 1027.7 hPa | - | - | - | - |
| 1777632941 | 11.67° C | 54% | 1027.9 hPa | - | - | - | - |
| 1777632341 | 11.11° C | 54% | 1027.9 hPa | - | - | - | - |
| 1777631741 | 10.56° C | 56% | 1027.9 hPa | - | - | - | - |
| 1777631141 | 10.56° C | 57% | 1028 hPa | - | - | - | - |
| 1777630542 | 10° C | 58% | 1028.1 hPa | - | - | - | - |
| 1777629943 | 10° C | 58% | 1028 hPa | - | - | - | - |
| 1777629344 | 10.56° C | 57% | 1028 hPa | - | - | - | - |
* Rain since midnight (hover to see other rain measurements)
** Current wind speed in m/s (hover to see current wind gust speed)